createdAt,value
2023-02-15T00:02:04.765Z,3.43
2023-02-15T00:06:09.504Z,3.42
2023-02-15T00:10:13.148Z,3.36
2023-02-15T00:14:18.302Z,3.29
2023-02-15T00:18:21.211Z,3.26
2023-02-15T00:22:25.586Z,3.23
2023-02-15T00:26:29.327Z,3.17
2023-02-15T00:30:34.038Z,3.12
2023-02-15T00:34:37.599Z,3.09
2023-02-15T00:38:42.193Z,3.08
2023-02-15T00:42:45.174Z,3.06
2023-02-15T00:46:48.268Z,3.01
2023-02-15T00:50:52.699Z,2.96
2023-02-15T00:54:57.713Z,2.90
2023-02-15T00:59:00.714Z,2.89
2023-02-15T01:03:03.802Z,2.88
2023-02-15T01:07:06.938Z,2.87
2023-02-15T01:11:13.616Z,2.84
2023-02-15T01:15:16.591Z,2.84
2023-02-15T01:19:19.608Z,2.82
2023-02-15T01:23:22.882Z,2.81
2023-02-15T01:27:27.293Z,2.81
2023-02-15T01:31:30.338Z,2.77
2023-02-15T01:35:33.778Z,2.65
2023-02-15T01:39:36.708Z,2.60
2023-02-15T01:43:46.827Z,2.56
2023-02-15T01:47:54.950Z,2.55
2023-02-15T01:52:00.053Z,2.56
2023-02-15T01:56:07.521Z,2.59
2023-02-15T02:00:13.212Z,2.64
2023-02-15T02:04:20.884Z,2.65
2023-02-15T02:08:24.225Z,2.63
2023-02-15T02:12:27.911Z,2.63
2023-02-15T02:16:41.840Z,2.60
2023-02-15T02:21:27.994Z,2.60
2023-02-15T02:26:01.732Z,2.58
2023-02-15T02:30:29.808Z,2.59
2023-02-15T02:34:40.659Z,2.62
2023-02-15T02:38:55.227Z,2.63
2023-02-15T02:43:03.978Z,2.64
2023-02-15T02:47:13.021Z,2.58
2023-02-15T02:51:22.423Z,2.58
2023-02-15T02:55:32.244Z,2.53
2023-02-15T02:59:41.616Z,2.52
2023-02-15T03:03:49.184Z,2.52
2023-02-15T03:07:55.723Z,2.52
2023-02-15T03:11:59.252Z,2.52
2023-02-15T03:16:21.300Z,2.50
2023-02-15T03:20:29.395Z,2.51
2023-02-15T03:24:37.209Z,2.47
2023-02-15T03:28:45.997Z,2.48
2023-02-15T03:32:50.795Z,2.52
2023-02-15T03:37:00.104Z,2.53
2023-02-15T03:41:12.691Z,2.51
2023-02-15T03:45:19.803Z,2.50
2023-02-15T03:49:26.556Z,2.44
2023-02-15T03:53:29.750Z,2.43
2023-02-15T03:57:56.292Z,2.39
2023-02-15T04:02:13.493Z,2.37
2023-02-15T04:06:16.619Z,2.34
2023-02-15T04:10:37.208Z,2.35
2023-02-15T04:14:59.515Z,2.39
2023-02-15T04:19:19.862Z,2.43
2023-02-15T04:23:40.189Z,2.45
2023-02-15T04:27:44.830Z,2.47
2023-02-15T04:31:49.831Z,2.47
2023-02-15T04:35:52.847Z,2.48
2023-02-15T04:39:55.928Z,2.50
2023-02-15T04:43:58.844Z,2.56
2023-02-15T04:48:03.217Z,2.61
2023-02-15T04:52:06.346Z,2.62
2023-02-15T04:56:09.560Z,2.63
2023-02-15T05:00:13.210Z,2.63
2023-02-15T05:04:18.079Z,2.62
2023-02-15T05:08:21.049Z,2.63
2023-02-15T05:12:24.084Z,2.62
2023-02-15T05:16:28.701Z,2.61
2023-02-15T05:20:33.272Z,2.63
2023-02-15T05:24:53.914Z,2.65
2023-02-15T05:28:56.910Z,2.68
2023-02-15T05:32:59.844Z,2.66
2023-02-15T05:37:04.259Z,2.66
2023-02-15T05:41:07.410Z,2.66
2023-02-15T05:45:10.822Z,2.68
2023-02-15T05:49:13.859Z,2.69
2023-02-15T05:53:18.223Z,2.69
2023-02-15T05:57:21.283Z,2.67
2023-02-15T06:01:24.580Z,2.63
2023-02-15T06:05:27.819Z,2.56
2023-02-15T06:09:32.244Z,2.47
2023-02-15T06:13:38.531Z,2.41
2023-02-15T06:17:43.482Z,2.38
2023-02-15T06:21:46.547Z,2.41
2023-02-15T06:25:50.981Z,2.39
2023-02-15T06:29:53.928Z,2.45
2023-02-15T06:34:01.908Z,2.49
2023-02-15T06:38:04.872Z,2.53
2023-02-15T06:42:09.253Z,2.57
2023-02-15T06:46:12.212Z,2.53
2023-02-15T06:50:15.265Z,2.58
2023-02-15T06:54:18.269Z,2.62
2023-02-15T06:58:22.685Z,2.68
2023-02-15T07:02:25.795Z,2.68
2023-02-15T07:06:33.339Z,2.59
2023-02-15T07:10:36.260Z,2.61
2023-02-15T07:14:41.583Z,2.57
2023-02-15T07:18:44.671Z,2.48
2023-02-15T07:22:48.084Z,2.49
2023-02-15T07:26:51.031Z,2.56
2023-02-15T07:30:55.700Z,2.62
2023-02-15T07:34:59.386Z,2.66
2023-02-15T07:39:02.423Z,2.65
2023-02-15T07:43:05.497Z,2.66
2023-02-15T07:47:09.887Z,2.68
2023-02-15T07:51:15.381Z,2.65
2023-02-15T07:55:19.553Z,2.62
2023-02-15T07:59:22.541Z,2.62
2023-02-15T08:03:28.081Z,2.66
2023-02-15T08:07:31.243Z,2.63
2023-02-15T08:11:37.534Z,2.65
2023-02-15T08:15:40.499Z,2.67
2023-02-15T08:19:45.066Z,2.66
2023-02-15T08:23:48.569Z,2.67
2023-02-15T08:27:51.767Z,2.65
2023-02-15T08:31:56.617Z,2.61
2023-02-15T08:36:04.900Z,2.66
2023-02-15T08:40:09.153Z,2.73
2023-02-15T08:44:12.774Z,2.77
2023-02-15T08:48:15.760Z,2.87
2023-02-15T08:52:20.143Z,2.99
2023-02-15T08:56:25.706Z,2.99
2023-02-15T09:00:29.380Z,3.00
2023-02-15T09:04:32.586Z,3.01
2023-02-15T09:08:37.653Z,3.03
2023-02-15T09:12:40.697Z,3.07
2023-02-15T09:16:47.375Z,3.12
2023-02-15T09:20:50.422Z,3.14
2023-02-15T09:24:54.956Z,3.11
2023-02-15T09:28:59.861Z,3.07
2023-02-15T09:33:03.067Z,3.06
2023-02-15T09:37:07.481Z,3.11
2023-02-15T09:41:28.531Z,3.15
2023-02-15T09:45:43.307Z,3.15
2023-02-15T09:49:52.860Z,3.11
2023-02-15T09:54:12.351Z,3.17
2023-02-15T09:58:22.432Z,3.22
2023-02-15T10:02:40.738Z,3.23
2023-02-15T10:06:57.879Z,3.23
2023-02-15T10:11:25.075Z,3.28
2023-02-15T10:15:45.010Z,3.33
2023-02-15T10:20:06.534Z,3.36
2023-02-15T10:24:40.536Z,3.39
2023-02-15T10:28:48.917Z,3.39
2023-02-15T10:33:01.655Z,3.43
2023-02-15T10:37:41.296Z,3.52
2023-02-15T10:41:54.133Z,3.60
2023-02-15T10:46:05.012Z,3.65
2023-02-15T10:50:40.343Z,3.66
2023-02-15T10:54:50.999Z,3.66
2023-02-15T10:59:09.112Z,3.65
2023-02-15T11:03:34.685Z,3.78
2023-02-15T11:07:42.852Z,3.94
2023-02-15T11:11:51.439Z,4.04
2023-02-15T11:15:58.426Z,4.09
2023-02-15T11:20:09.986Z,4.09
2023-02-15T11:24:14.792Z,4.06
2023-02-15T11:28:26.989Z,4.08
2023-02-15T11:32:32.824Z,4.08
2023-02-15T11:36:40.096Z,4.10
2023-02-15T11:40:48.401Z,4.05
2023-02-15T11:45:00.958Z,3.98
2023-02-15T11:49:04.046Z,4.05
2023-02-15T11:53:13.321Z,4.14
2023-02-15T11:57:21.304Z,4.19
2023-02-15T12:01:33.927Z,4.26
2023-02-15T12:05:41.407Z,4.29
2023-02-15T12:09:50.282Z,4.22
2023-02-15T12:13:58.350Z,4.23
2023-02-15T12:18:02.902Z,4.30
2023-02-15T12:22:10.343Z,4.32
2023-02-15T12:26:14.870Z,4.33
2023-02-15T12:30:24.244Z,4.34
2023-02-15T12:34:32.326Z,4.43
2023-02-15T12:38:36.776Z,4.49
2023-02-15T12:42:45.408Z,4.59
2023-02-15T12:47:00.096Z,4.61
2023-02-15T12:51:11.670Z,4.65
2023-02-15T12:55:23.940Z,4.69
2023-02-15T12:59:27.593Z,4.64
2023-02-15T13:03:30.687Z,4.64
2023-02-15T13:07:35.275Z,4.65
2023-02-15T13:11:39.264Z,4.70
2023-02-15T13:15:46.604Z,4.69
2023-02-15T13:19:52.820Z,4.70
2023-02-15T13:24:02.167Z,4.74
2023-02-15T13:28:07.232Z,4.88
2023-02-15T13:32:23.642Z,4.95
2023-02-15T13:36:33.931Z,4.97
2023-02-15T13:40:46.220Z,5.03
2023-02-15T13:45:12.526Z,5.11
2023-02-15T13:49:26.328Z,5.22
2023-02-15T13:53:53.047Z,5.26
2023-02-15T13:58:37.843Z,5.28
2023-02-15T14:03:02.800Z,5.25
2023-02-15T14:07:26.125Z,5.19
2023-02-15T14:11:37.546Z,5.14
2023-02-15T14:15:46.715Z,5.11
2023-02-15T14:19:56.676Z,5.05
2023-02-15T14:24:14.597Z,4.96
2023-02-15T14:28:22.987Z,4.86
2023-02-15T14:32:33.583Z,4.75
2023-02-15T14:36:38.147Z,4.69
2023-02-15T14:41:03.384Z,4.69
2023-02-15T14:45:19.228Z,4.60
2023-02-15T14:49:25.148Z,4.52
2023-02-15T14:53:47.149Z,4.51
2023-02-15T14:58:00.568Z,4.47
2023-02-15T15:02:14.112Z,4.45
2023-02-15T15:06:27.721Z,4.48
2023-02-15T15:10:44.415Z,4.41
2023-02-15T15:14:47.338Z,4.34
2023-02-15T15:18:51.266Z,4.28
2023-02-15T15:23:34.712Z,4.21
2023-02-15T15:27:47.003Z,4.11
2023-02-15T15:31:57.199Z,4.01
2023-02-15T15:36:19.575Z,3.98
2023-02-15T15:40:50.452Z,3.96
2023-02-15T15:45:36.207Z,3.87
2023-02-15T15:49:40.730Z,3.80
2023-02-15T15:53:49.974Z,3.79
2023-02-15T15:57:55.624Z,3.71
2023-02-15T16:02:06.422Z,3.66
2023-02-15T16:06:15.789Z,3.62
2023-02-15T16:10:24.519Z,3.59
2023-02-15T16:14:30.986Z,3.59
2023-02-15T16:18:39.867Z,3.57
2023-02-15T16:22:43.120Z,3.55
2023-02-15T16:27:17.583Z,3.52
2023-02-15T16:31:23.189Z,3.46
2023-02-15T16:35:28.265Z,3.45
2023-02-15T16:39:35.070Z,3.41
2023-02-15T16:43:39.700Z,3.34
2023-02-15T16:47:47.989Z,3.26
2023-02-15T16:52:01.183Z,3.21
2023-02-15T16:56:07.321Z,3.16
2023-02-15T17:00:21.777Z,3.14
2023-02-15T17:04:33.223Z,3.12
2023-02-15T17:08:44.712Z,3.10
2023-02-15T17:12:49.707Z,3.06
2023-02-15T17:16:57.410Z,3.02
2023-02-15T17:21:03.834Z,3.04
2023-02-15T17:25:08.673Z,2.99
2023-02-15T17:29:21.658Z,2.94
2023-02-15T17:33:30.102Z,2.89
2023-02-15T17:37:44.454Z,2.85
2023-02-15T17:41:48.958Z,2.82
2023-02-15T17:45:53.304Z,2.79
2023-02-15T17:49:56.549Z,2.73
2023-02-15T17:54:16.711Z,2.74
2023-02-15T17:58:22.479Z,2.68
2023-02-15T18:02:43.148Z,2.57
2023-02-15T18:07:03.900Z,2.46
2023-02-15T18:11:24.134Z,2.37
2023-02-15T18:15:28.799Z,2.29
2023-02-15T18:19:32.780Z,2.17
2023-02-15T18:23:35.811Z,2.13
2023-02-15T18:27:38.735Z,2.10
2023-02-15T18:31:44.251Z,2.10
2023-02-15T18:35:49.240Z,2.04
2023-02-15T18:39:54.376Z,1.99
2023-02-15T18:43:57.504Z,1.96
2023-02-15T18:48:02.208Z,1.92
2023-02-15T18:52:05.487Z,1.86
2023-02-15T18:56:13.940Z,1.80
2023-02-15T19:00:19.385Z,1.72
2023-02-15T19:04:25.801Z,1.66
2023-02-15T19:08:29.516Z,1.61
2023-02-15T19:12:32.939Z,1.57
2023-02-15T19:16:37.708Z,1.52
2023-02-15T19:20:45.106Z,1.50
2023-02-15T19:24:49.057Z,1.45
2023-02-15T19:28:52.327Z,1.39
2023-02-15T19:32:55.509Z,1.32
2023-02-15T19:37:00.440Z,1.27
2023-02-15T19:41:07.379Z,1.23
2023-02-15T19:45:15.512Z,1.18
2023-02-15T19:49:18.727Z,1.15
2023-02-15T19:53:25.809Z,1.09
2023-02-15T19:57:29.050Z,1.05
2023-02-15T20:01:32.098Z,1.02
2023-02-15T20:05:38.376Z,0.99
2023-02-15T20:09:43.653Z,0.98
2023-02-15T20:13:47.645Z,0.96
2023-02-15T20:17:51.278Z,0.94
2023-02-15T20:21:55.028Z,0.94
2023-02-15T20:26:02.263Z,0.92
2023-02-15T20:30:08.336Z,0.90
2023-02-15T20:34:11.900Z,0.88
2023-02-15T20:38:20.465Z,0.83
2023-02-15T20:42:24.880Z,0.80
2023-02-15T20:46:28.027Z,0.79
2023-02-15T20:50:33.690Z,0.79
2023-02-15T20:54:38.050Z,0.77
2023-02-15T20:58:42.524Z,0.77
2023-02-15T21:02:46.751Z,0.77
2023-02-15T21:06:49.884Z,0.74
2023-02-15T21:10:54.568Z,0.74
2023-02-15T21:14:59.246Z,0.71
2023-02-15T21:19:02.174Z,0.68
2023-02-15T21:23:07.137Z,0.64
2023-02-15T21:27:14.370Z,0.53
2023-02-15T21:31:20.703Z,0.44
2023-02-15T21:35:24.225Z,0.42
2023-02-15T21:39:30.714Z,0.38
2023-02-15T21:43:51.077Z,0.35
2023-02-15T21:47:55.503Z,0.26
2023-02-15T21:52:14.287Z,0.15
2023-02-15T21:56:19.554Z,0.04
2023-02-15T22:00:24.624Z,0.01
2023-02-15T22:04:31.172Z,-0.01
2023-02-15T22:08:35.199Z,-0.06
2023-02-15T22:12:38.936Z,-0.05
2023-02-15T22:16:42.134Z,-0.08
2023-02-15T22:20:46.626Z,-0.10
2023-02-15T22:24:49.557Z,-0.13
2023-02-15T22:28:52.835Z,-0.16
2023-02-15T22:32:57.716Z,-0.20
2023-02-15T22:37:03.263Z,-0.26
2023-02-15T22:41:06.652Z,-0.28
2023-02-15T22:45:16.925Z,-0.27
2023-02-15T22:49:20.196Z,-0.26
2023-02-15T22:53:24.679Z,-0.25
2023-02-15T22:57:32.063Z,-0.25
2023-02-15T23:01:36.993Z,-0.25
2023-02-15T23:05:40.017Z,-0.28
2023-02-15T23:09:44.779Z,-0.36
2023-02-15T23:13:49.747Z,-0.39
2023-02-15T23:17:52.981Z,-0.43
2023-02-15T23:21:56.063Z,-0.43
2023-02-15T23:26:03.150Z,-0.44
2023-02-15T23:30:14.284Z,-0.44
2023-02-15T23:34:20.945Z,-0.45
2023-02-15T23:38:27.335Z,-0.48
2023-02-15T23:42:34.643Z,-0.56
2023-02-15T23:46:42.620Z,-0.60
2023-02-15T23:50:45.725Z,-0.64
2023-02-15T23:54:48.647Z,-0.66
2023-02-15T23:58:53.096Z,-0.68
